sensor_id;sensor_type;location;lat;lon;timestamp;P1;durP1;ratioP1;P2;durP2;ratioP2
9559;SDS011;4818;50.860;4.648;2024-02-26T00:01:26;0.30;;;0.00;;
9559;SDS011;4818;50.860;4.648;2024-02-26T00:03:52;0.13;;;0.00;;
9559;SDS011;4818;50.860;4.648;2024-02-26T00:06:20;0.30;;;0.00;;
9559;SDS011;4818;50.860;4.648;2024-02-26T00:08:46;0.20;;;0.00;;
9559;SDS011;4818;50.860;4.648;2024-02-26T00:11:12;0.30;;;0.00;;
9559;SDS011;4818;50.860;4.648;2024-02-26T00:13:39;0.10;;;0.00;;
9559;SDS011;4818;50.860;4.648;2024-02-26T00:16:05;0.30;;;0.10;;
9559;SDS011;4818;50.860;4.648;2024-02-26T00:18:32;0.10;;;0.00;;
9559;SDS011;4818;50.860;4.648;2024-02-26T00:20:58;0.90;;;0.10;;
9559;SDS011;4818;50.860;4.648;2024-02-26T00:23:25;0.10;;;0.00;;
9559;SDS011;4818;50.860;4.648;2024-02-26T00:25:52;0.40;;;0.10;;
9559;SDS011;4818;50.860;4.648;2024-02-26T00:28:18;0.32;;;0.00;;
9559;SDS011;4818;50.860;4.648;2024-02-26T00:30:45;0.20;;;0.00;;
9559;SDS011;4818;50.860;4.648;2024-02-26T00:33:12;0.25;;;0.05;;
9559;SDS011;4818;50.860;4.648;2024-02-26T00:35:38;0.00;;;0.00;;
9559;SDS011;4818;50.860;4.648;2024-02-26T00:38:04;0.32;;;0.03;;
9559;SDS011;4818;50.860;4.648;2024-02-26T00:40:30;0.17;;;0.08;;
9559;SDS011;4818;50.860;4.648;2024-02-26T00:42:57;0.17;;;0.00;;
9559;SDS011;4818;50.860;4.648;2024-02-26T00:45:23;0.20;;;0.10;;
9559;SDS011;4818;50.860;4.648;2024-02-26T00:47:49;0.17;;;0.10;;
9559;SDS011;4818;50.860;4.648;2024-02-26T00:50:15;0.88;;;0.00;;
9559;SDS011;4818;50.860;4.648;2024-02-26T00:52:42;0.10;;;0.00;;
9559;SDS011;4818;50.860;4.648;2024-02-26T00:55:08;0.00;;;0.00;;
9559;SDS011;4818;50.860;4.648;2024-02-26T00:57:34;0.35;;;0.00;;
9559;SDS011;4818;50.860;4.648;2024-02-26T01:00:00;0.63;;;0.00;;
9559;SDS011;4818;50.860;4.648;2024-02-26T01:02:26;0.10;;;0.00;;
9559;SDS011;4818;50.860;4.648;2024-02-26T01:04:53;1.77;;;0.30;;
9559;SDS011;4818;50.860;4.648;2024-02-26T01:07:19;0.28;;;0.10;;
9559;SDS011;4818;50.860;4.648;2024-02-26T01:09:45;0.20;;;0.00;;
9559;SDS011;4818;50.860;4.648;2024-02-26T01:12:11;1.48;;;0.10;;
9559;SDS011;4818;50.860;4.648;2024-02-26T01:14:37;0.10;;;0.10;;
9559;SDS011;4818;50.860;4.648;2024-02-26T01:17:04;0.20;;;0.00;;
9559;SDS011;4818;50.860;4.648;2024-02-26T01:19:30;0.20;;;0.10;;
9559;SDS011;4818;50.860;4.648;2024-02-26T01:21:56;1.10;;;0.10;;
9559;SDS011;4818;50.860;4.648;2024-02-26T01:24:22;0.55;;;0.10;;
9559;SDS011;4818;50.860;4.648;2024-02-26T01:26:49;0.20;;;0.00;;
9559;SDS011;4818;50.860;4.648;2024-02-26T01:29:15;0.45;;;0.00;;
9559;SDS011;4818;50.860;4.648;2024-02-26T01:31:41;0.20;;;0.00;;
9559;SDS011;4818;50.860;4.648;2024-02-26T01:34:07;0.40;;;0.10;;
9559;SDS011;4818;50.860;4.648;2024-02-26T01:36:33;0.98;;;0.13;;
9559;SDS011;4818;50.860;4.648;2024-02-26T01:39:01;0.40;;;0.10;;
9559;SDS011;4818;50.860;4.648;2024-02-26T01:41:28;0.60;;;0.00;;
9559;SDS011;4818;50.860;4.648;2024-02-26T01:43:54;0.70;;;0.00;;
9559;SDS011;4818;50.860;4.648;2024-02-26T01:46:20;0.20;;;0.00;;
9559;SDS011;4818;50.860;4.648;2024-02-26T01:48:47;0.40;;;0.13;;
9559;SDS011;4818;50.860;4.648;2024-02-26T01:51:15;0.40;;;0.10;;
9559;SDS011;4818;50.860;4.648;2024-02-26T01:53:42;0.05;;;0.00;;
9559;SDS011;4818;50.860;4.648;2024-02-26T01:56:09;0.00;;;0.00;;
9559;SDS011;4818;50.860;4.648;2024-02-26T01:58:35;0.73;;;0.00;;
9559;SDS011;4818;50.860;4.648;2024-02-26T02:01:02;0.20;;;0.00;;
9559;SDS011;4818;50.860;4.648;2024-02-26T02:03:28;0.00;;;0.00;;
9559;SDS011;4818;50.860;4.648;2024-02-26T02:05:55;0.43;;;0.03;;
9559;SDS011;4818;50.860;4.648;2024-02-26T02:08:22;0.13;;;0.00;;
9559;SDS011;4818;50.860;4.648;2024-02-26T02:10:49;0.30;;;0.00;;
9559;SDS011;4818;50.860;4.648;2024-02-26T02:13:16;0.10;;;0.00;;
9559;SDS011;4818;50.860;4.648;2024-02-26T02:15:42;0.20;;;0.00;;
9559;SDS011;4818;50.860;4.648;2024-02-26T02:18:08;1.63;;;0.10;;
9559;SDS011;4818;50.860;4.648;2024-02-26T02:20:35;0.20;;;0.00;;
9559;SDS011;4818;50.860;4.648;2024-02-26T02:23:02;0.10;;;0.00;;
9559;SDS011;4818;50.860;4.648;2024-02-26T02:25:28;1.40;;;0.13;;
9559;SDS011;4818;50.860;4.648;2024-02-26T02:27:55;0.15;;;0.00;;
9559;SDS011;4818;50.860;4.648;2024-02-26T02:30:21;0.15;;;0.00;;
9559;SDS011;4818;50.860;4.648;2024-02-26T02:32:49;0.80;;;0.40;;
9559;SDS011;4818;50.860;4.648;2024-02-26T02:35:16;0.68;;;0.10;;
9559;SDS011;4818;50.860;4.648;2024-02-26T02:37:43;0.20;;;0.00;;
9559;SDS011;4818;50.860;4.648;2024-02-26T02:40:09;0.20;;;0.00;;
9559;SDS011;4818;50.860;4.648;2024-02-26T02:42:35;1.10;;;0.00;;
9559;SDS011;4818;50.860;4.648;2024-02-26T02:45:01;0.08;;;0.00;;
9559;SDS011;4818;50.860;4.648;2024-02-26T02:47:28;0.30;;;0.17;;
9559;SDS011;4818;50.860;4.648;2024-02-26T02:49:54;0.00;;;0.00;;
9559;SDS011;4818;50.860;4.648;2024-02-26T02:52:20;0.10;;;0.00;;
9559;SDS011;4818;50.860;4.648;2024-02-26T02:54:46;0.20;;;0.10;;
9559;SDS011;4818;50.860;4.648;2024-02-26T02:57:12;0.10;;;0.00;;
9559;SDS011;4818;50.860;4.648;2024-02-26T02:59:39;0.20;;;0.00;;
9559;SDS011;4818;50.860;4.648;2024-02-26T03:02:05;0.00;;;0.00;;
9559;SDS011;4818;50.860;4.648;2024-02-26T03:04:31;0.95;;;0.35;;
9559;SDS011;4818;50.860;4.648;2024-02-26T03:06:58;0.10;;;0.00;;
9559;SDS011;4818;50.860;4.648;2024-02-26T03:09:25;0.40;;;0.40;;
9559;SDS011;4818;50.860;4.648;2024-02-26T03:11:51;3.97;;;0.08;;
9559;SDS011;4818;50.860;4.648;2024-02-26T03:14:17;0.00;;;0.00;;
9559;SDS011;4818;50.860;4.648;2024-02-26T03:16:43;0.43;;;0.00;;
9559;SDS011;4818;50.860;4.648;2024-02-26T03:19:10;0.22;;;0.00;;
9559;SDS011;4818;50.860;4.648;2024-02-26T03:21:36;0.55;;;0.00;;
9559;SDS011;4818;50.860;4.648;2024-02-26T03:24:02;0.25;;;0.03;;
9559;SDS011;4818;50.860;4.648;2024-02-26T03:26:28;0.03;;;0.00;;
9559;SDS011;4818;50.860;4.648;2024-02-26T03:28:56;0.10;;;0.00;;
9559;SDS011;4818;50.860;4.648;2024-02-26T03:31:22;0.17;;;0.00;;
9559;SDS011;4818;50.860;4.648;2024-02-26T03:33:49;0.00;;;0.00;;
9559;SDS011;4818;50.860;4.648;2024-02-26T03:36:15;0.10;;;0.08;;
9559;SDS011;4818;50.860;4.648;2024-02-26T03:38:42;0.30;;;0.10;;
9559;SDS011;4818;50.860;4.648;2024-02-26T03:41:08;0.43;;;0.20;;
9559;SDS011;4818;50.860;4.648;2024-02-26T03:43:34;0.35;;;0.10;;
9559;SDS011;4818;50.860;4.648;2024-02-26T03:46:00;0.30;;;0.10;;
9559;SDS011;4818;50.860;4.648;2024-02-26T03:48:27;0.10;;;0.00;;
9559;SDS011;4818;50.860;4.648;2024-02-26T03:50:53;1.27;;;0.10;;
9559;SDS011;4818;50.860;4.648;2024-02-26T03:53:19;0.15;;;0.10;;
9559;SDS011;4818;50.860;4.648;2024-02-26T03:55:45;0.28;;;0.00;;
9559;SDS011;4818;50.860;4.648;2024-02-26T03:58:12;0.70;;;0.10;;
9559;SDS011;4818;50.860;4.648;2024-02-26T04:00:38;0.43;;;0.25;;
9559;SDS011;4818;50.860;4.648;2024-02-26T04:03:05;0.40;;;0.13;;
9559;SDS011;4818;50.860;4.648;2024-02-26T04:05:31;0.17;;;0.03;;
9559;SDS011;4818;50.860;4.648;2024-02-26T04:07:57;0.55;;;0.35;;
9559;SDS011;4818;50.860;4.648;2024-02-26T04:10:24;0.30;;;0.10;;
9559;SDS011;4818;50.860;4.648;2024-02-26T04:12:51;0.90;;;0.10;;
9559;SDS011;4818;50.860;4.648;2024-02-26T04:15:17;0.13;;;0.03;;
9559;SDS011;4818;50.860;4.648;2024-02-26T04:17:43;0.25;;;0.10;;
9559;SDS011;4818;50.860;4.648;2024-02-26T04:20:13;0.10;;;0.00;;
9559;SDS011;4818;50.860;4.648;2024-02-26T04:22:40;0.38;;;0.22;;
9559;SDS011;4818;50.860;4.648;2024-02-26T04:25:07;0.32;;;0.20;;
9559;SDS011;4818;50.860;4.648;2024-02-26T04:27:33;0.70;;;0.10;;
9559;SDS011;4818;50.860;4.648;2024-02-26T04:29:59;0.25;;;0.03;;
9559;SDS011;4818;50.860;4.648;2024-02-26T04:32:25;0.45;;;0.20;;
9559;SDS011;4818;50.860;4.648;2024-02-26T04:34:53;0.43;;;0.10;;
9559;SDS011;4818;50.860;4.648;2024-02-26T04:37:20;0.70;;;0.10;;
9559;SDS011;4818;50.860;4.648;2024-02-26T04:39:46;0.70;;;0.20;;
9559;SDS011;4818;50.860;4.648;2024-02-26T04:42:12;0.60;;;0.10;;
9559;SDS011;4818;50.860;4.648;2024-02-26T04:44:39;0.60;;;0.20;;
9559;SDS011;4818;50.860;4.648;2024-02-26T04:47:05;1.75;;;0.10;;
9559;SDS011;4818;50.860;4.648;2024-02-26T04:49:32;1.02;;;0.20;;
9559;SDS011;4818;50.860;4.648;2024-02-26T04:51:59;0.68;;;0.10;;
9559;SDS011;4818;50.860;4.648;2024-02-26T04:54:25;0.70;;;0.20;;
9559;SDS011;4818;50.860;4.648;2024-02-26T04:56:51;0.75;;;0.20;;
9559;SDS011;4818;50.860;4.648;2024-02-26T04:59:17;0.95;;;0.40;;
9559;SDS011;4818;50.860;4.648;2024-02-26T05:01:43;1.85;;;0.50;;
9559;SDS011;4818;50.860;4.648;2024-02-26T05:04:10;1.50;;;0.50;;
9559;SDS011;4818;50.860;4.648;2024-02-26T05:06:36;1.42;;;0.20;;
9559;SDS011;4818;50.860;4.648;2024-02-26T05:09:03;2.08;;;0.30;;
9559;SDS011;4818;50.860;4.648;2024-02-26T05:11:29;0.63;;;0.30;;
9559;SDS011;4818;50.860;4.648;2024-02-26T05:13:56;2.80;;;0.47;;
9559;SDS011;4818;50.860;4.648;2024-02-26T05:16:23;1.17;;;0.50;;
9559;SDS011;4818;50.860;4.648;2024-02-26T05:18:51;0.55;;;0.32;;
9559;SDS011;4818;50.860;4.648;2024-02-26T05:21:17;3.03;;;0.55;;
9559;SDS011;4818;50.860;4.648;2024-02-26T05:23:43;2.67;;;0.50;;
9559;SDS011;4818;50.860;4.648;2024-02-26T05:26:10;1.58;;;0.47;;
9559;SDS011;4818;50.860;4.648;2024-02-26T05:28:36;0.90;;;0.43;;
9559;SDS011;4818;50.860;4.648;2024-02-26T05:31:04;0.90;;;0.20;;
9559;SDS011;4818;50.860;4.648;2024-02-26T05:33:30;0.95;;;0.45;;
9559;SDS011;4818;50.860;4.648;2024-02-26T05:35:57;1.35;;;0.55;;
9559;SDS011;4818;50.860;4.648;2024-02-26T05:38:28;1.58;;;0.43;;
9559;SDS011;4818;50.860;4.648;2024-02-26T05:40:57;1.92;;;0.68;;
9559;SDS011;4818;50.860;4.648;2024-02-26T05:43:24;2.15;;;0.90;;
9559;SDS011;4818;50.860;4.648;2024-02-26T05:45:50;1.38;;;0.47;;
9559;SDS011;4818;50.860;4.648;2024-02-26T05:48:17;2.85;;;0.65;;
9559;SDS011;4818;50.860;4.648;2024-02-26T05:50:44;2.05;;;0.60;;
9559;SDS011;4818;50.860;4.648;2024-02-26T05:53:10;2.17;;;0.65;;
9559;SDS011;4818;50.860;4.648;2024-02-26T05:55:37;2.88;;;0.98;;
9559;SDS011;4818;50.860;4.648;2024-02-26T05:58:03;2.45;;;1.15;;
9559;SDS011;4818;50.860;4.648;2024-02-26T06:00:30;2.40;;;0.70;;
9559;SDS011;4818;50.860;4.648;2024-02-26T06:02:56;2.67;;;0.90;;
9559;SDS011;4818;50.860;4.648;2024-02-26T06:05:22;1.80;;;0.93;;
9559;SDS011;4818;50.860;4.648;2024-02-26T06:07:49;1.88;;;1.00;;
9559;SDS011;4818;50.860;4.648;2024-02-26T06:10:15;2.50;;;1.05;;
9559;SDS011;4818;50.860;4.648;2024-02-26T06:12:41;2.35;;;0.77;;
9559;SDS011;4818;50.860;4.648;2024-02-26T06:15:07;4.95;;;1.30;;
9559;SDS011;4818;50.860;4.648;2024-02-26T06:17:34;3.00;;;1.13;;
9559;SDS011;4818;50.860;4.648;2024-02-26T06:20:00;2.47;;;0.88;;
9559;SDS011;4818;50.860;4.648;2024-02-26T06:22:27;1.83;;;0.90;;
9559;SDS011;4818;50.860;4.648;2024-02-26T06:24:53;4.80;;;1.27;;
9559;SDS011;4818;50.860;4.648;2024-02-26T06:27:19;4.25;;;2.03;;
9559;SDS011;4818;50.860;4.648;2024-02-26T06:29:47;2.53;;;1.05;;
9559;SDS011;4818;50.860;4.648;2024-02-26T06:32:13;3.10;;;1.27;;
9559;SDS011;4818;50.860;4.648;2024-02-26T06:34:39;5.63;;;1.90;;
9559;SDS011;4818;50.860;4.648;2024-02-26T06:37:07;4.78;;;1.08;;
9559;SDS011;4818;50.860;4.648;2024-02-26T06:39:33;3.22;;;0.90;;
9559;SDS011;4818;50.860;4.648;2024-02-26T06:42:00;3.67;;;1.90;;
9559;SDS011;4818;50.860;4.648;2024-02-26T06:44:29;7.22;;;2.20;;
9559;SDS011;4818;50.860;4.648;2024-02-26T06:47:00;4.38;;;2.13;;
9559;SDS011;4818;50.860;4.648;2024-02-26T06:51:53;6.30;;;1.48;;
9559;SDS011;4818;50.860;4.648;2024-02-26T06:54:19;3.53;;;1.48;;
9559;SDS011;4818;50.860;4.648;2024-02-26T06:56:45;5.05;;;2.20;;
9559;SDS011;4818;50.860;4.648;2024-02-26T06:59:12;3.97;;;2.03;;
9559;SDS011;4818;50.860;4.648;2024-02-26T07:01:40;4.50;;;2.80;;
9559;SDS011;4818;50.860;4.648;2024-02-26T07:04:07;4.28;;;1.45;;
9559;SDS011;4818;50.860;4.648;2024-02-26T07:06:33;7.35;;;2.00;;
9559;SDS011;4818;50.860;4.648;2024-02-26T07:08:59;4.82;;;2.42;;
9559;SDS011;4818;50.860;4.648;2024-02-26T07:11:26;4.03;;;1.75;;
9559;SDS011;4818;50.860;4.648;2024-02-26T07:13:52;2.78;;;1.77;;
9559;SDS011;4818;50.860;4.648;2024-02-26T07:16:18;5.38;;;1.92;;
9559;SDS011;4818;50.860;4.648;2024-02-26T07:18:47;4.63;;;1.93;;
9559;SDS011;4818;50.860;4.648;2024-02-26T07:21:13;5.28;;;2.40;;
9559;SDS011;4818;50.860;4.648;2024-02-26T07:23:39;5.43;;;2.30;;
9559;SDS011;4818;50.860;4.648;2024-02-26T07:26:06;4.00;;;1.63;;
9559;SDS011;4818;50.860;4.648;2024-02-26T07:28:33;2.78;;;1.00;;
9559;SDS011;4818;50.860;4.648;2024-02-26T07:30:59;4.15;;;1.75;;
9559;SDS011;4818;50.860;4.648;2024-02-26T07:33:25;4.97;;;1.75;;
9559;SDS011;4818;50.860;4.648;2024-02-26T07:35:52;3.15;;;1.50;;
9559;SDS011;4818;50.860;4.648;2024-02-26T07:38:18;3.00;;;1.58;;
9559;SDS011;4818;50.860;4.648;2024-02-26T07:40:45;3.15;;;1.35;;
9559;SDS011;4818;50.860;4.648;2024-02-26T07:43:11;3.90;;;2.00;;
9559;SDS011;4818;50.860;4.648;2024-02-26T07:45:37;2.85;;;1.40;;
9559;SDS011;4818;50.860;4.648;2024-02-26T07:48:03;3.78;;;1.30;;
9559;SDS011;4818;50.860;4.648;2024-02-26T07:50:30;4.90;;;1.98;;
9559;SDS011;4818;50.860;4.648;2024-02-26T07:52:56;4.07;;;1.35;;
9559;SDS011;4818;50.860;4.648;2024-02-26T07:55:23;5.05;;;1.95;;
9559;SDS011;4818;50.860;4.648;2024-02-26T07:57:49;5.47;;;1.33;;
9559;SDS011;4818;50.860;4.648;2024-02-26T08:00:19;2.97;;;1.52;;
9559;SDS011;4818;50.860;4.648;2024-02-26T08:02:45;3.70;;;1.83;;
9559;SDS011;4818;50.860;4.648;2024-02-26T08:05:12;3.20;;;1.88;;
9559;SDS011;4818;50.860;4.648;2024-02-26T08:07:38;2.22;;;1.52;;
9559;SDS011;4818;50.860;4.648;2024-02-26T08:10:04;5.43;;;1.60;;
9559;SDS011;4818;50.860;4.648;2024-02-26T08:12:33;3.38;;;2.05;;
9559;SDS011;4818;50.860;4.648;2024-02-26T08:15:00;3.65;;;0.93;;
9559;SDS011;4818;50.860;4.648;2024-02-26T08:17:26;3.40;;;1.75;;
9559;SDS011;4818;50.860;4.648;2024-02-26T08:19:53;2.58;;;1.60;;
9559;SDS011;4818;50.860;4.648;2024-02-26T08:22:19;2.65;;;1.27;;
9559;SDS011;4818;50.860;4.648;2024-02-26T08:24:45;3.67;;;1.23;;
9559;SDS011;4818;50.860;4.648;2024-02-26T08:27:11;4.00;;;1.30;;
9559;SDS011;4818;50.860;4.648;2024-02-26T08:29:38;2.67;;;1.40;;
9559;SDS011;4818;50.860;4.648;2024-02-26T08:32:04;4.57;;;1.30;;
9559;SDS011;4818;50.860;4.648;2024-02-26T08:34:32;2.63;;;0.90;;
9559;SDS011;4818;50.860;4.648;2024-02-26T08:36:58;3.28;;;1.05;;
9559;SDS011;4818;50.860;4.648;2024-02-26T08:39:24;2.90;;;0.95;;
9559;SDS011;4818;50.860;4.648;2024-02-26T08:41:51;2.55;;;1.10;;
9559;SDS011;4818;50.860;4.648;2024-02-26T08:44:17;3.08;;;1.20;;
9559;SDS011;4818;50.860;4.648;2024-02-26T08:46:43;3.80;;;1.30;;
9559;SDS011;4818;50.860;4.648;2024-02-26T08:49:11;2.80;;;1.20;;
9559;SDS011;4818;50.860;4.648;2024-02-26T08:51:43;4.22;;;1.40;;
9559;SDS011;4818;50.860;4.648;2024-02-26T08:54:10;4.00;;;1.65;;
9559;SDS011;4818;50.860;4.648;2024-02-26T08:56:36;4.85;;;2.00;;
9559;SDS011;4818;50.860;4.648;2024-02-26T08:59:03;2.85;;;1.35;;
9559;SDS011;4818;50.860;4.648;2024-02-26T09:01:29;2.20;;;1.67;;
9559;SDS011;4818;50.860;4.648;2024-02-26T09:03:55;5.60;;;1.60;;
9559;SDS011;4818;50.860;4.648;2024-02-26T09:06:22;3.60;;;1.33;;
9559;SDS011;4818;50.860;4.648;2024-02-26T09:08:48;3.80;;;1.67;;
9559;SDS011;4818;50.860;4.648;2024-02-26T09:11:14;2.15;;;1.17;;
9559;SDS011;4818;50.860;4.648;2024-02-26T09:13:40;3.10;;;1.40;;
9559;SDS011;4818;50.860;4.648;2024-02-26T09:16:07;3.08;;;1.42;;
9559;SDS011;4818;50.860;4.648;2024-02-26T09:18:33;4.35;;;1.17;;
9559;SDS011;4818;50.860;4.648;2024-02-26T09:21:03;3.83;;;1.23;;
9559;SDS011;4818;50.860;4.648;2024-02-26T09:23:35;2.88;;;1.67;;
9559;SDS011;4818;50.860;4.648;2024-02-26T09:26:01;4.45;;;1.98;;
9559;SDS011;4818;50.860;4.648;2024-02-26T09:28:28;4.30;;;1.15;;
9559;SDS011;4818;50.860;4.648;2024-02-26T09:30:57;4.10;;;1.20;;
9559;SDS011;4818;50.860;4.648;2024-02-26T09:33:23;4.63;;;1.55;;
9559;SDS011;4818;50.860;4.648;2024-02-26T09:35:49;2.45;;;1.17;;
9559;SDS011;4818;50.860;4.648;2024-02-26T09:38:15;4.43;;;1.27;;
9559;SDS011;4818;50.860;4.648;2024-02-26T09:40:42;1.88;;;0.95;;
9559;SDS011;4818;50.860;4.648;2024-02-26T09:43:08;3.22;;;1.20;;
9559;SDS011;4818;50.860;4.648;2024-02-26T09:45:36;4.38;;;1.42;;
9559;SDS011;4818;50.860;4.648;2024-02-26T09:48:02;2.88;;;1.33;;
9559;SDS011;4818;50.860;4.648;2024-02-26T09:50:30;2.65;;;1.42;;
9559;SDS011;4818;50.860;4.648;2024-02-26T09:52:57;3.28;;;1.73;;
9559;SDS011;4818;50.860;4.648;2024-02-26T09:55:25;3.85;;;1.52;;
9559;SDS011;4818;50.860;4.648;2024-02-26T09:57:51;2.78;;;1.00;;
9559;SDS011;4818;50.860;4.648;2024-02-26T10:00:17;4.10;;;1.40;;
9559;SDS011;4818;50.860;4.648;2024-02-26T10:02:47;3.45;;;1.10;;
9559;SDS011;4818;50.860;4.648;2024-02-26T10:07:40;1.63;;;0.95;;
9559;SDS011;4818;50.860;4.648;2024-02-26T10:10:07;2.75;;;0.73;;
9559;SDS011;4818;50.860;4.648;2024-02-26T10:12:34;3.15;;;1.08;;
9559;SDS011;4818;50.860;4.648;2024-02-26T10:17:29;1.90;;;1.08;;
9559;SDS011;4818;50.860;4.648;2024-02-26T10:20:09;2.67;;;1.05;;
9559;SDS011;4818;50.860;4.648;2024-02-26T10:22:36;2.75;;;1.08;;
9559;SDS011;4818;50.860;4.648;2024-02-26T10:25:02;2.33;;;1.20;;
9559;SDS011;4818;50.860;4.648;2024-02-26T10:27:29;2.40;;;0.77;;
9559;SDS011;4818;50.860;4.648;2024-02-26T10:29:56;2.85;;;0.68;;
9559;SDS011;4818;50.860;4.648;2024-02-26T10:32:22;1.95;;;0.80;;
9559;SDS011;4818;50.860;4.648;2024-02-26T10:34:49;2.85;;;1.17;;
9559;SDS011;4818;50.860;4.648;2024-02-26T10:37:22;2.35;;;1.00;;
9559;SDS011;4818;50.860;4.648;2024-02-26T10:39:48;2.28;;;1.00;;
9559;SDS011;4818;50.860;4.648;2024-02-26T10:42:14;3.05;;;0.75;;
9559;SDS011;4818;50.860;4.648;2024-02-26T10:44:43;3.47;;;0.70;;
9559;SDS011;4818;50.860;4.648;2024-02-26T10:47:10;3.90;;;1.02;;
9559;SDS011;4818;50.860;4.648;2024-02-26T10:49:36;3.17;;;1.40;;
9559;SDS011;4818;50.860;4.648;2024-02-26T10:52:02;2.45;;;1.02;;
9559;SDS011;4818;50.860;4.648;2024-02-26T10:54:31;1.95;;;0.60;;
9559;SDS011;4818;50.860;4.648;2024-02-26T10:56:58;3.17;;;1.17;;
9559;SDS011;4818;50.860;4.648;2024-02-26T10:59:25;3.05;;;0.60;;
9559;SDS011;4818;50.860;4.648;2024-02-26T11:01:52;2.08;;;0.70;;
9559;SDS011;4818;50.860;4.648;2024-02-26T11:04:18;3.70;;;0.93;;
9559;SDS011;4818;50.860;4.648;2024-02-26T11:06:44;1.38;;;0.63;;
9559;SDS011;4818;50.860;4.648;2024-02-26T11:09:12;1.30;;;0.52;;
9559;SDS011;4818;50.860;4.648;2024-02-26T11:11:38;2.58;;;0.52;;
9559;SDS011;4818;50.860;4.648;2024-02-26T11:14:06;1.48;;;0.50;;
9559;SDS011;4818;50.860;4.648;2024-02-26T11:16:33;1.52;;;0.70;;
9559;SDS011;4818;50.860;4.648;2024-02-26T11:19:01;1.27;;;0.45;;
9559;SDS011;4818;50.860;4.648;2024-02-26T11:21:28;3.05;;;0.77;;
9559;SDS011;4818;50.860;4.648;2024-02-26T11:24:15;1.50;;;0.60;;
9559;SDS011;4818;50.860;4.648;2024-02-26T11:26:46;2.13;;;0.77;;
9559;SDS011;4818;50.860;4.648;2024-02-26T11:29:13;1.05;;;0.30;;
9559;SDS011;4818;50.860;4.648;2024-02-26T11:31:41;1.75;;;0.47;;
9559;SDS011;4818;50.860;4.648;2024-02-26T11:34:08;1.70;;;0.52;;
9559;SDS011;4818;50.860;4.648;2024-02-26T11:36:35;1.30;;;0.40;;
9559;SDS011;4818;50.860;4.648;2024-02-26T11:39:03;0.95;;;0.50;;
9559;SDS011;4818;50.860;4.648;2024-02-26T11:41:30;1.50;;;0.60;;
9559;SDS011;4818;50.860;4.648;2024-02-26T11:44:03;1.08;;;0.50;;
9559;SDS011;4818;50.860;4.648;2024-02-26T11:46:41;0.90;;;0.40;;
9559;SDS011;4818;50.860;4.648;2024-02-26T11:51:51;1.15;;;0.35;;
9559;SDS011;4818;50.860;4.648;2024-02-26T11:59:47;1.63;;;0.40;;
9559;SDS011;4818;50.860;4.648;2024-02-26T12:04:59;1.00;;;0.52;;
9559;SDS011;4818;50.860;4.648;2024-02-26T12:07:26;1.45;;;0.80;;
9559;SDS011;4818;50.860;4.648;2024-02-26T12:09:52;1.65;;;0.50;;
9559;SDS011;4818;50.860;4.648;2024-02-26T12:12:18;2.55;;;0.50;;
9559;SDS011;4818;50.860;4.648;2024-02-26T12:14:51;2.22;;;0.52;;
9559;SDS011;4818;50.860;4.648;2024-02-26T12:17:22;0.95;;;0.32;;
9559;SDS011;4818;50.860;4.648;2024-02-26T12:19:48;2.40;;;0.50;;
9559;SDS011;4818;50.860;4.648;2024-02-26T12:22:18;0.85;;;0.65;;
9559;SDS011;4818;50.860;4.648;2024-02-26T12:24:44;1.33;;;0.98;;
9559;SDS011;4818;50.860;4.648;2024-02-26T12:27:13;1.73;;;0.50;;
9559;SDS011;4818;50.860;4.648;2024-02-26T12:29:40;1.48;;;0.47;;
9559;SDS011;4818;50.860;4.648;2024-02-26T12:32:06;1.30;;;0.57;;
9559;SDS011;4818;50.860;4.648;2024-02-26T12:34:32;1.23;;;0.40;;
9559;SDS011;4818;50.860;4.648;2024-02-26T12:36:59;1.52;;;0.30;;
9559;SDS011;4818;50.860;4.648;2024-02-26T12:39:25;2.35;;;0.50;;
9559;SDS011;4818;50.860;4.648;2024-02-26T12:41:51;0.90;;;0.32;;
9559;SDS011;4818;50.860;4.648;2024-02-26T12:44:18;1.65;;;0.57;;
9559;SDS011;4818;50.860;4.648;2024-02-26T12:46:44;1.55;;;0.50;;
9559;SDS011;4818;50.860;4.648;2024-02-26T12:49:14;1.40;;;0.65;;
9559;SDS011;4818;50.860;4.648;2024-02-26T12:51:43;1.30;;;0.45;;
9559;SDS011;4818;50.860;4.648;2024-02-26T12:54:09;1.08;;;0.45;;
9559;SDS011;4818;50.860;4.648;2024-02-26T12:56:36;0.82;;;0.40;;
9559;SDS011;4818;50.860;4.648;2024-02-26T12:59:03;1.55;;;0.32;;
9559;SDS011;4818;50.860;4.648;2024-02-26T13:01:29;1.08;;;0.52;;
9559;SDS011;4818;50.860;4.648;2024-02-26T13:03:56;1.50;;;0.70;;
9559;SDS011;4818;50.860;4.648;2024-02-26T13:06:23;1.42;;;0.68;;
9559;SDS011;4818;50.860;4.648;2024-02-26T13:08:49;1.15;;;0.50;;
9559;SDS011;4818;50.860;4.648;2024-02-26T13:11:16;2.05;;;0.60;;
9559;SDS011;4818;50.860;4.648;2024-02-26T13:13:47;1.67;;;0.73;;
9559;SDS011;4818;50.860;4.648;2024-02-26T13:16:14;1.48;;;0.50;;
9559;SDS011;4818;50.860;4.648;2024-02-26T13:18:41;1.10;;;0.57;;
9559;SDS011;4818;50.860;4.648;2024-02-26T13:21:08;1.58;;;0.80;;
9559;SDS011;4818;50.860;4.648;2024-02-26T13:23:35;1.48;;;0.60;;
9559;SDS011;4818;50.860;4.648;2024-02-26T13:26:01;1.92;;;1.00;;
9559;SDS011;4818;50.860;4.648;2024-02-26T13:28:28;4.22;;;0.60;;
9559;SDS011;4818;50.860;4.648;2024-02-26T13:30:55;2.70;;;0.95;;
9559;SDS011;4818;50.860;4.648;2024-02-26T13:33:22;2.28;;;0.50;;
9559;SDS011;4818;50.860;4.648;2024-02-26T13:35:48;1.10;;;0.52;;
9559;SDS011;4818;50.860;4.648;2024-02-26T13:38:15;2.45;;;1.40;;
9559;SDS011;4818;50.860;4.648;2024-02-26T13:40:41;4.78;;;0.85;;
9559;SDS011;4818;50.860;4.648;2024-02-26T13:43:07;2.28;;;0.88;;
9559;SDS011;4818;50.860;4.648;2024-02-26T13:45:34;1.75;;;1.00;;
9559;SDS011;4818;50.860;4.648;2024-02-26T13:48:07;1.92;;;0.85;;
9559;SDS011;4818;50.860;4.648;2024-02-26T13:50:35;3.75;;;1.20;;
9559;SDS011;4818;50.860;4.648;2024-02-26T13:53:01;2.60;;;1.33;;
9559;SDS011;4818;50.860;4.648;2024-02-26T13:55:31;2.70;;;1.40;;
9559;SDS011;4818;50.860;4.648;2024-02-26T13:57:58;2.50;;;1.58;;
9559;SDS011;4818;50.860;4.648;2024-02-26T14:00:26;3.72;;;1.33;;
9559;SDS011;4818;50.860;4.648;2024-02-26T14:02:53;3.78;;;1.75;;
9559;SDS011;4818;50.860;4.648;2024-02-26T14:05:19;2.40;;;1.17;;
9559;SDS011;4818;50.860;4.648;2024-02-26T14:07:46;4.72;;;1.40;;
9559;SDS011;4818;50.860;4.648;2024-02-26T14:10:12;2.78;;;1.15;;
9559;SDS011;4818;50.860;4.648;2024-02-26T14:12:39;3.63;;;1.35;;
9559;SDS011;4818;50.860;4.648;2024-02-26T14:15:06;2.08;;;1.67;;
9559;SDS011;4818;50.860;4.648;2024-02-26T14:17:32;3.30;;;1.38;;
9559;SDS011;4818;50.860;4.648;2024-02-26T14:19:59;4.05;;;1.60;;
9559;SDS011;4818;50.860;4.648;2024-02-26T14:22:25;4.22;;;1.45;;
9559;SDS011;4818;50.860;4.648;2024-02-26T14:24:52;2.50;;;1.40;;
9559;SDS011;4818;50.860;4.648;2024-02-26T14:27:18;4.05;;;1.48;;
9559;SDS011;4818;50.860;4.648;2024-02-26T14:29:47;3.75;;;1.77;;
9559;SDS011;4818;50.860;4.648;2024-02-26T14:32:13;2.83;;;1.45;;
9559;SDS011;4818;50.860;4.648;2024-02-26T14:34:40;3.80;;;1.30;;
9559;SDS011;4818;50.860;4.648;2024-02-26T14:37:07;2.40;;;1.30;;
9559;SDS011;4818;50.860;4.648;2024-02-26T14:39:33;3.35;;;1.27;;
9559;SDS011;4818;50.860;4.648;2024-02-26T14:42:00;3.67;;;1.90;;
9559;SDS011;4818;50.860;4.648;2024-02-26T14:44:27;3.13;;;1.80;;
9559;SDS011;4818;50.860;4.648;2024-02-26T14:46:53;4.85;;;1.02;;
9559;SDS011;4818;50.860;4.648;2024-02-26T14:49:19;2.65;;;1.30;;
9559;SDS011;4818;50.860;4.648;2024-02-26T14:51:45;2.97;;;0.93;;
9559;SDS011;4818;50.860;4.648;2024-02-26T14:54:12;2.55;;;0.75;;
9559;SDS011;4818;50.860;4.648;2024-02-26T14:56:38;2.22;;;1.00;;
9559;SDS011;4818;50.860;4.648;2024-02-26T14:59:05;6.00;;;1.15;;
9559;SDS011;4818;50.860;4.648;2024-02-26T15:01:31;2.65;;;0.93;;
9559;SDS011;4818;50.860;4.648;2024-02-26T15:03:57;2.50;;;0.68;;
9559;SDS011;4818;50.860;4.648;2024-02-26T15:06:24;2.35;;;1.40;;
9559;SDS011;4818;50.860;4.648;2024-02-26T15:08:51;5.97;;;1.00;;
9559;SDS011;4818;50.860;4.648;2024-02-26T15:11:17;1.85;;;0.65;;
9559;SDS011;4818;50.860;4.648;2024-02-26T15:13:44;1.83;;;0.75;;
9559;SDS011;4818;50.860;4.648;2024-02-26T15:16:16;4.75;;;1.13;;
9559;SDS011;4818;50.860;4.648;2024-02-26T15:18:44;3.45;;;1.35;;
9559;SDS011;4818;50.860;4.648;2024-02-26T15:21:10;3.35;;;1.13;;
9559;SDS011;4818;50.860;4.648;2024-02-26T15:23:38;3.08;;;0.73;;
9559;SDS011;4818;50.860;4.648;2024-02-26T15:26:05;2.63;;;0.73;;
9559;SDS011;4818;50.860;4.648;2024-02-26T15:28:31;2.03;;;1.00;;
9559;SDS011;4818;50.860;4.648;2024-02-26T15:30:57;3.35;;;1.10;;